Time;durP1;ratioP1;P1;durP2;ratioP2;P2;SDS_P1;SDS_P2;PMS_P1;PMS_P2;Temp;Humidity;BMP_temperature;BMP_pressure;BME280_temperature;BME280_humidity;BME280_pressure;Samples;Min_cycle;Max_cycle;Signal;HPM_P1;HPM_P2
2022/03/25 00:01:27;;;;;;;19.92;11.73;;;6.10;52.00;;;;;;4981349;28;20108;-69
2022/03/25 00:03:53;;;;;;;28.15;14.52;;;6.00;51.90;;;;;;4983858;28;20041;-68
2022/03/25 00:06:19;;;;;;;24.52;13.90;;;6.00;52.00;;;;;;4978835;28;20669;-68
2022/03/25 00:08:44;;;;;;;26.38;14.57;;;6.00;52.20;;;;;;4979764;28;20514;-68
2022/03/25 00:11:10;;;;;;;24.02;14.23;;;5.90;52.30;;;;;;4975852;28;20030;-68
2022/03/25 00:13:36;;;;;;;22.30;12.35;;;5.90;52.40;;;;;;4976888;28;20039;-68
2022/03/25 00:16:04;;;;;;;19.40;12.20;;;5.80;52.50;;;;;;4978915;28;20023;-67
2022/03/25 00:18:29;;;;;;;22.85;11.15;;;5.70;52.70;;;;;;4987657;28;20026;-67
2022/03/25 00:20:55;;;;;;;22.42;12.50;;;5.60;52.80;;;;;;4981988;28;20811;-68
2022/03/25 00:23:21;;;;;;;19.83;12.05;;;5.60;53.00;;;;;;4974944;28;20042;-67
2022/03/25 00:25:47;;;;;;;25.13;13.50;;;5.60;53.10;;;;;;4975465;28;20497;-69
2022/03/25 00:28:13;;;;;;;21.67;12.77;;;5.50;53.10;;;;;;4993728;28;20046;-67
2022/03/25 00:30:38;;;;;;;24.10;13.43;;;5.50;53.30;;;;;;4977162;28;20240;-67
2022/03/25 00:33:04;;;;;;;26.08;12.68;;;5.50;53.30;;;;;;4979208;28;20412;-66
2022/03/25 00:35:31;;;;;;;22.65;12.77;;;5.50;53.40;;;;;;4974909;28;20490;-66
2022/03/25 00:37:58;;;;;;;22.08;12.75;;;5.50;53.50;;;;;;4979696;28;20105;-68
2022/03/25 00:40:23;;;;;;;24.92;13.90;;;5.50;53.60;;;;;;4974073;28;20038;-66
2022/03/25 00:42:49;;;;;;;22.70;12.68;;;5.40;53.60;;;;;;4978710;28;20424;-67
2022/03/25 00:45:15;;;;;;;23.73;12.90;;;5.30;53.70;;;;;;4978170;28;20038;-67
2022/03/25 00:47:41;;;;;;;19.77;13.13;;;5.30;53.80;;;;;;4976663;28;20031;-69
2022/03/25 00:50:06;;;;;;;21.45;13.00;;;5.30;54.50;;;;;;4975987;28;20038;-66
2022/03/25 00:52:32;;;;;;;21.55;12.68;;;5.20;53.90;;;;;;4975965;28;20066;-65
2022/03/25 00:54:58;;;;;;;18.05;11.50;;;5.20;54.10;;;;;;4978214;28;20382;-67
2022/03/25 00:57:23;;;;;;;21.33;12.15;;;5.20;54.20;;;;;;4975581;28;20038;-66
2022/03/25 00:59:49;;;;;;;19.48;11.77;;;5.10;54.30;;;;;;4980410;28;20441;-66
2022/03/25 01:02:15;;;;;;;18.23;11.55;;;5.10;54.20;;;;;;4977219;28;20512;-67
2022/03/25 01:04:41;;;;;;;20.58;11.85;;;5.10;54.20;;;;;;4976451;28;20727;-66
2022/03/25 01:07:06;;;;;;;20.45;11.70;;;5.10;54.30;;;;;;4972637;28;20031;-67
2022/03/25 01:09:32;;;;;;;22.30;12.43;;;5.10;54.40;;;;;;4975437;28;20062;-66
2022/03/25 01:11:58;;;;;;;22.63;12.18;;;5.00;54.60;;;;;;4974686;28;20046;-66
2022/03/25 01:14:24;;;;;;;19.70;11.30;;;5.00;54.70;;;;;;4978684;28;20034;-68
2022/03/25 01:16:49;;;;;;;19.92;12.50;;;4.90;54.60;;;;;;4975053;28;20057;-67
2022/03/25 01:19:15;;;;;;;21.33;11.75;;;4.90;54.80;;;;;;4978927;28;20126;-66
2022/03/25 01:21:41;;;;;;;23.77;12.52;;;4.90;54.90;;;;;;4968697;28;20039;-67
2022/03/25 01:24:06;;;;;;;21.33;12.95;;;4.90;55.00;;;;;;4957099;28;20035;-67
2022/03/25 01:26:32;;;;;;;20.85;12.13;;;4.80;55.10;;;;;;4972296;28;20034;-66
2022/03/25 01:28:58;;;;;;;20.33;11.63;;;4.80;55.20;;;;;;4972296;28;20034;-66
2022/03/25 01:31:24;;;;;;;22.45;13.10;;;4.70;55.30;;;;;;4961256;28;20027;-66
2022/03/25 01:33:50;;;;;;;20.77;11.88;;;4.70;55.60;;;;;;4963247;28;20046;-66
2022/03/25 01:36:18;;;;;;;20.35;12.70;;;4.60;55.60;;;;;;4954460;28;20039;-67
2022/03/25 01:38:44;;;;;;;19.48;11.95;;;4.60;55.70;;;;;;4975276;28;20873;-66
2022/03/25 01:41:10;;;;;;;22.33;11.77;;;4.50;55.50;;;;;;4976603;28;20501;-67
2022/03/25 01:43:36;;;;;;;21.60;11.52;;;4.60;55.60;;;;;;4974597;28;20053;-67
2022/03/25 01:46:02;;;;;;;18.90;11.40;;;4.60;55.60;;;;;;4963427;28;20343;-67
2022/03/25 01:48:28;;;;;;;20.90;11.52;;;4.60;55.40;;;;;;4969300;28;20038;-66
2022/03/25 01:50:54;;;;;;;21.50;11.68;;;4.60;55.40;;;;;;4974084;28;20169;-66
2022/03/25 01:53:26;;;;;;;20.40;11.52;;;4.60;55.50;;;;;;4973552;28;20031;-66
2022/03/25 01:55:53;;;;;;;20.00;11.68;;;4.60;55.80;;;;;;4979276;28;20113;-66
2022/03/25 01:58:20;;;;;;;20.23;12.02;;;4.70;55.40;;;;;;4975377;28;20135;-66
2022/03/25 02:00:47;;;;;;;21.08;12.48;;;4.70;55.40;;;;;;4958398;28;20046;-67
2022/03/25 02:03:13;;;;;;;19.02;11.45;;;4.70;55.50;;;;;;4970665;28;20069;-67
2022/03/25 02:05:38;;;;;;;19.58;12.35;;;4.70;55.40;;;;;;4976814;28;20126;-66
2022/03/25 02:08:04;;;;;;;22.55;12.15;;;4.70;55.50;;;;;;4962121;28;20455;-65
2022/03/25 02:10:30;;;;;;;21.40;12.32;;;4.60;55.50;;;;;;4955831;28;20062;-66
2022/03/25 02:12:56;;;;;;;19.52;12.18;;;4.60;55.60;;;;;;4953616;28;20149;-66
2022/03/25 02:15:36;;;;;;;19.52;11.93;;;4.50;55.60;;;;;;4962223;28;20104;-66
2022/03/25 02:18:05;;;;;;;20.30;11.98;;;4.50;56.40;;;;;;4976816;28;20027;-67
2022/03/25 02:20:31;;;;;;;24.58;12.85;;;4.40;55.80;;;;;;4955156;28;20050;-66
2022/03/25 02:22:57;;;;;;;20.40;11.90;;;4.30;55.80;;;;;;4958697;28;20053;-65
2022/03/25 02:25:26;;;;;;;20.27;11.65;;;4.30;55.90;;;;;;4975270;28;20034;-66
2022/03/25 02:27:52;;;;;;;19.92;11.63;;;4.20;55.90;;;;;;4962936;28;20035;-66
2022/03/25 02:30:20;;;;;;;20.40;12.10;;;4.20;55.90;;;;;;4956587;28;20122;-66
2022/03/25 02:32:45;;;;;;;20.80;11.75;;;4.20;56.10;;;;;;4974103;28;20043;-67
2022/03/25 02:35:11;;;;;;;20.17;11.70;;;4.10;56.10;;;;;;4966108;28;20039;-67
2022/03/25 02:37:37;;;;;;;22.95;12.05;;;4.10;56.30;;;;;;4965678;28;20043;-66
2022/03/25 02:40:04;;;;;;;22.33;12.52;;;4.10;57.00;;;;;;4974415;28;20040;-66
2022/03/25 02:42:30;;;;;;;21.23;11.40;;;4.00;56.50;;;;;;4975724;28;20163;-66
2022/03/25 02:44:55;;;;;;;19.90;11.75;;;4.00;56.50;;;;;;4956473;28;20182;-66
2022/03/25 02:47:21;;;;;;;21.70;12.15;;;4.00;56.50;;;;;;4966867;28;20047;-66
2022/03/25 02:49:46;;;;;;;21.08;12.45;;;4.00;56.50;;;;;;4975946;28;20038;-67
2022/03/25 02:52:12;;;;;;;20.20;12.05;;;3.90;56.60;;;;;;4974867;28;20034;-67
2022/03/25 02:54:38;;;;;;;20.55;12.35;;;3.90;56.60;;;;;;4973571;28;20035;-67
2022/03/25 02:57:04;;;;;;;23.45;12.32;;;3.90;56.70;;;;;;4974734;28;20049;-66
2022/03/25 02:59:30;;;;;;;23.02;12.98;;;3.90;56.70;;;;;;4962874;28;20070;-67
2022/03/25 03:01:56;;;;;;;21.92;12.38;;;3.80;56.80;;;;;;4967368;28;20339;-66
2022/03/25 03:04:22;;;;;;;24.35;12.30;;;3.80;57.50;;;;;;4975528;28;20038;-67
2022/03/25 03:06:47;;;;;;;21.35;12.32;;;3.80;57.00;;;;;;4969772;28;21921;-65
2022/03/25 03:09:13;;;;;;;19.50;11.85;;;3.80;57.10;;;;;;4954344;28;20784;-66
2022/03/25 03:11:38;;;;;;;23.10;12.18;;;3.70;57.10;;;;;;4954083;28;20027;-67
2022/03/25 03:14:04;;;;;;;19.90;11.45;;;3.70;57.20;;;;;;4952974;28;20034;-66
2022/03/25 03:16:31;;;;;;;20.38;11.80;;;3.70;57.20;;;;;;4971219;28;20449;-65
2022/03/25 03:18:56;;;;;;;21.40;12.13;;;3.70;57.10;;;;;;4973606;28;20027;-66
2022/03/25 03:21:24;;;;;;;22.13;12.20;;;3.60;57.20;;;;;;4954563;28;20031;-66
2022/03/25 03:23:53;;;;;;;21.85;12.15;;;3.60;57.30;;;;;;4968288;28;20041;-65
2022/03/25 03:26:20;;;;;;;22.02;12.70;;;3.60;57.60;;;;;;4972197;28;20035;-66
2022/03/25 03:28:46;;;;;;;21.10;12.35;;;3.60;57.40;;;;;;4954374;28;20046;-66
2022/03/25 03:31:12;;;;;;;26.42;12.73;;;3.60;57.30;;;;;;4964997;28;20409;-67
2022/03/25 03:33:38;;;;;;;23.10;12.10;;;3.60;57.50;;;;;;4975322;28;20035;-66
2022/03/25 03:36:04;;;;;;;19.95;12.00;;;3.50;57.50;;;;;;4959946;28;20909;-66
2022/03/25 03:38:30;;;;;;;22.63;12.13;;;3.50;57.60;;;;;;4952397;28;20035;-68
2022/03/25 03:40:56;;;;;;;17.88;11.38;;;3.50;57.70;;;;;;4972335;28;20260;-68
2022/03/25 03:43:22;;;;;;;22.67;12.57;;;3.40;57.70;;;;;;4969665;28;20141;-68
2022/03/25 03:45:48;;;;;;;27.02;12.43;;;3.40;57.80;;;;;;4956427;28;20123;-68
2022/03/25 03:48:13;;;;;;;24.40;12.68;;;3.30;57.80;;;;;;4969626;28;20458;-68
2022/03/25 03:50:40;;;;;;;22.70;12.60;;;3.30;57.90;;;;;;4972585;28;20277;-67
2022/03/25 03:53:05;;;;;;;20.42;11.90;;;3.30;58.00;;;;;;4957096;28;20240;-68
2022/03/25 03:55:31;;;;;;;20.10;11.55;;;3.30;58.20;;;;;;4971105;28;20042;-68
2022/03/25 03:57:57;;;;;;;21.17;11.95;;;3.20;58.20;;;;;;4973895;28;20126;-68
2022/03/25 04:00:26;;;;;;;24.15;13.07;;;3.20;58.20;;;;;;4959221;28;20660;-69
2022/03/25 04:02:52;;;;;;;21.95;12.20;;;3.20;58.20;;;;;;4958126;28;20049;-69
2022/03/25 04:05:17;;;;;;;21.92;12.10;;;3.20;58.20;;;;;;4974638;28;20034;-67
2022/03/25 04:07:45;;;;;;;22.95;11.93;;;3.10;58.10;;;;;;4960035;28;20035;-69
2022/03/25 04:10:11;;;;;;;23.88;12.75;;;3.10;58.30;;;;;;4968219;28;20034;-67
2022/03/25 04:12:37;;;;;;;23.02;12.23;;;3.10;58.30;;;;;;4970060;28;20038;-67
2022/03/25 04:15:05;;;;;;;20.85;11.80;;;3.10;58.30;;;;;;4968797;28;20035;-67
2022/03/25 04:17:31;;;;;;;27.40;13.75;;;3.10;58.40;;;;;;4965687;28;20049;-68
2022/03/25 04:19:56;;;;;;;22.48;12.15;;;3.10;58.40;;;;;;4973871;28;20038;-67
2022/03/25 04:22:22;;;;;;;22.05;12.10;;;3.00;58.50;;;;;;4971228;28;20598;-68
2022/03/25 04:24:48;;;;;;;24.85;12.40;;;3.00;58.50;;;;;;4955854;28;20039;-68
2022/03/25 04:27:13;;;;;;;22.83;12.38;;;3.00;58.40;;;;;;4961765;28;20034;-68
2022/03/25 04:29:39;;;;;;;21.23;12.32;;;3.00;58.50;;;;;;4980133;28;20026;-68
2022/03/25 04:32:06;;;;;;;22.13;12.90;;;3.00;58.30;;;;;;4962598;28;20053;-67
2022/03/25 04:34:32;;;;;;;27.85;13.57;;;3.00;58.50;;;;;;4956199;28;20035;-68
2022/03/25 04:36:58;;;;;;;23.73;12.43;;;3.00;58.50;;;;;;4977339;28;20505;-67
2022/03/25 04:39:23;;;;;;;24.67;13.05;;;2.90;58.60;;;;;;4965703;28;20078;-68
2022/03/25 04:41:49;;;;;;;26.58;13.15;;;2.90;58.60;;;;;;4955306;28;20050;-68
2022/03/25 04:44:14;;;;;;;22.13;12.38;;;2.90;58.70;;;;;;4975559;28;20054;-67
2022/03/25 04:46:40;;;;;;;24.80;13.43;;;2.90;58.80;;;;;;4973394;28;20045;-69
2022/03/25 04:49:07;;;;;;;26.98;12.95;;;2.80;58.80;;;;;;4954267;28;21041;-68
2022/03/25 04:51:33;;;;;;;24.23;12.98;;;2.80;58.90;;;;;;4964277;28;20022;-70
2022/03/25 04:53:58;;;;;;;26.10;13.48;;;2.80;59.00;;;;;;4975289;28;20389;-70
2022/03/25 04:56:24;;;;;;;25.85;13.98;;;2.70;59.00;;;;;;4964090;28;20126;-67
2022/03/25 04:58:49;;;;;;;26.13;13.45;;;2.70;59.10;;;;;;4961137;28;20042;-68
2022/03/25 05:01:15;;;;;;;24.60;13.48;;;2.70;59.30;;;;;;4989159;28;20084;-68
2022/03/25 05:03:41;;;;;;;27.42;14.00;;;2.70;59.30;;;;;;4970341;28;20047;-69
2022/03/25 05:06:07;;;;;;;26.70;14.02;;;2.60;59.30;;;;;;4959505;28;20113;-68
2022/03/25 05:08:32;;;;;;;26.20;13.60;;;2.60;59.30;;;;;;4972178;28;20044;-67
2022/03/25 05:10:58;;;;;;;23.85;13.63;;;2.60;59.30;;;;;;4972001;28;20073;-68
2022/03/25 05:13:25;;;;;;;24.92;13.85;;;2.60;59.50;;;;;;4975767;28;20026;-67
2022/03/25 05:15:50;;;;;;;27.33;13.48;;;2.60;59.50;;;;;;4961804;28;20406;-66
2022/03/25 05:18:17;;;;;;;27.17;14.15;;;2.60;59.50;;;;;;4953621;28;20043;-66
2022/03/25 05:20:42;;;;;;;24.27;12.98;;;2.60;59.50;;;;;;4954007;28;21131;-66
2022/03/25 05:23:08;;;;;;;27.23;14.30;;;2.60;59.50;;;;;;4954605;28;20129;-66
2022/03/25 05:25:34;;;;;;;27.35;13.60;;;2.60;59.50;;;;;;4953612;28;20182;-66
2022/03/25 05:28:00;;;;;;;23.88;13.75;;;2.60;59.50;;;;;;4978469;28;20522;-66
2022/03/25 05:30:31;;;;;;;27.40;13.07;;;2.60;59.60;;;;;;4978714;28;20046;-66
2022/03/25 05:32:58;;;;;;;24.33;13.85;;;2.60;59.80;;;;;;4959942;28;20498;-68
2022/03/25 05:35:25;;;;;;;23.67;13.48;;;2.60;59.50;;;;;;4968790;28;20039;-68
2022/03/25 05:37:51;;;;;;;24.25;13.00;;;2.60;59.60;;;;;;4979845;28;20121;-68
2022/03/25 05:40:19;;;;;;;27.90;14.35;;;2.60;59.60;;;;;;4963645;28;20554;-68
2022/03/25 05:42:45;;;;;;;27.80;14.50;;;2.60;59.60;;;;;;4962378;28;20054;-69
2022/03/25 05:45:10;;;;;;;25.80;14.48;;;2.60;59.60;;;;;;4977187;28;20744;-67
2022/03/25 05:47:38;;;;;;;26.90;14.32;;;2.60;59.90;;;;;;4970352;28;20050;-68
2022/03/25 05:50:05;;;;;;;22.90;12.82;;;2.60;60.00;;;;;;4960523;28;20043;-68
2022/03/25 05:52:31;;;;;;;24.90;13.70;;;2.60;60.00;;;;;;4976765;28;20084;-69
2022/03/25 05:54:56;;;;;;;27.15;14.98;;;2.60;59.90;;;;;;4974478;28;20035;-68
2022/03/25 05:57:22;;;;;;;26.58;14.95;;;2.60;60.10;;;;;;4958208;28;20374;-68
2022/03/25 05:59:48;;;;;;;24.20;14.07;;;2.70;60.20;;;;;;4971668;28;20030;-68
2022/03/25 06:02:14;;;;;;;25.30;13.45;;;2.60;60.30;;;;;;4978379;28;20497;-68
2022/03/25 06:04:40;;;;;;;24.98;14.30;;;2.70;60.30;;;;;;4961185;28;20046;-68
2022/03/25 06:07:06;;;;;;;30.00;15.18;;;2.70;60.20;;;;;;4964132;28;20038;-68
2022/03/25 06:09:32;;;;;;;32.33;15.07;;;2.80;60.40;;;;;;4981052;28;20031;-69
2022/03/25 06:11:57;;;;;;;27.58;14.50;;;2.80;60.80;;;;;;4963083;28;20098;-68
2022/03/25 06:14:25;;;;;;;32.45;15.18;;;2.80;60.90;;;;;;4971139;28;20034;-68
2022/03/25 06:16:51;;;;;;;30.95;16.08;;;2.90;61.00;;;;;;4978948;28;20031;-67
2022/03/25 06:19:17;;;;;;;27.13;14.85;;;3.00;61.10;;;;;;4971572;28;20046;-68
2022/03/25 06:21:43;;;;;;;32.75;15.00;;;3.00;61.00;;;;;;4960603;28;20027;-68
2022/03/25 06:24:09;;;;;;;27.70;13.52;;;3.10;60.80;;;;;;4974532;28;20117;-68
2022/03/25 06:26:35;;;;;;;36.00;14.95;;;3.10;60.70;;;;;;4974803;28;20031;-68
2022/03/25 06:29:01;;;;;;;40.20;15.95;;;3.20;60.70;;;;;;4959729;28;20055;-68
2022/03/25 06:31:26;;;;;;;35.92;16.02;;;3.30;60.60;;;;;;4968689;28;20054;-67
2022/03/25 06:33:52;;;;;;;34.78;16.25;;;3.30;60.60;;;;;;4977798;28;20801;-69
2022/03/25 06:36:18;;;;;;;36.83;17.85;;;3.40;60.60;;;;;;4962848;28;20506;-68
2022/03/25 06:38:44;;;;;;;31.65;15.75;;;3.50;60.70;;;;;;4959717;28;20034;-67
2022/03/25 06:41:10;;;;;;;39.53;17.83;;;3.60;60.80;;;;;;4975859;28;20414;-68
2022/03/25 06:43:36;;;;;;;33.28;16.50;;;3.70;60.70;;;;;;4974181;28;20046;-67
2022/03/25 06:46:04;;;;;;;34.50;17.08;;;3.70;60.70;;;;;;4958705;28;20118;-68
2022/03/25 06:48:30;;;;;;;32.92;16.42;;;3.90;60.60;;;;;;4975886;28;20072;-68
2022/03/25 06:50:56;;;;;;;27.73;14.95;;;3.90;60.60;;;;;;4974576;28;20027;-67
2022/03/25 06:53:22;;;;;;;33.58;16.05;;;4.00;60.60;;;;;;4957918;28;20050;-68
2022/03/25 06:55:48;;;;;;;34.63;15.93;;;4.10;60.60;;;;;;4969779;28;20065;-67
2022/03/25 06:58:14;;;;;;;36.15;17.02;;;4.10;60.50;;;;;;4962433;28;20043;-67
2022/03/25 07:00:40;;;;;;;35.35;16.90;;;4.20;60.60;;;;;;4976567;28;20035;-67
2022/03/25 07:03:06;;;;;;;36.05;16.15;;;4.30;60.60;;;;;;4973043;28;20043;-66
2022/03/25 07:05:32;;;;;;;30.17;15.68;;;4.40;60.50;;;;;;4957795;28;20061;-67
2022/03/25 07:07:58;;;;;;;41.10;17.33;;;4.50;60.30;;;;;;4970339;28;20113;-68
2022/03/25 07:10:26;;;;;;;37.53;16.80;;;4.60;60.20;;;;;;4977939;28;20172;-68
2022/03/25 07:12:53;;;;;;;33.63;15.80;;;4.70;60.00;;;;;;4955861;28;20038;-67
2022/03/25 07:15:20;;;;;;;33.42;16.55;;;4.80;60.00;;;;;;4966378;28;20441;-69
2022/03/25 07:17:46;;;;;;;31.55;15.35;;;4.90;59.80;;;;;;4976756;28;20033;-68
2022/03/25 07:20:14;;;;;;;35.13;16.00;;;5.10;59.70;;;;;;4964551;28;20039;-68
2022/03/25 07:22:44;;;;;;;36.50;17.05;;;5.10;59.50;;;;;;4960836;28;20512;-68
2022/03/25 07:25:10;;;;;;;35.25;15.77;;;5.30;59.40;;;;;;4977276;28;20042;-66
2022/03/25 07:27:36;;;;;;;33.97;15.85;;;5.40;59.20;;;;;;4966415;28;20503;-65
2022/03/25 07:30:04;;;;;;;40.88;19.30;;;5.50;59.10;;;;;;4959440;28;20117;-65
2022/03/25 07:32:30;;;;;;;38.55;17.48;;;5.60;58.90;;;;;;4975512;28;20049;-66
2022/03/25 07:34:56;;;;;;;40.05;16.67;;;5.80;58.70;;;;;;4974320;28;20047;-66
2022/03/25 07:37:21;;;;;;;31.17;16.13;;;5.80;58.50;;;;;;4958522;28;20057;-66
2022/03/25 07:39:47;;;;;;;33.17;16.17;;;5.90;58.30;;;;;;4968408;28;20031;-65
2022/03/25 07:42:13;;;;;;;39.80;16.50;;;6.00;58.20;;;;;;4978078;28;20405;-66
2022/03/25 07:44:39;;;;;;;37.60;16.88;;;6.20;58.10;;;;;;4957889;28;20030;-66
2022/03/25 07:47:07;;;;;;;34.05;16.38;;;6.30;58.10;;;;;;4961846;28;20145;-66
2022/03/25 07:49:38;;;;;;;40.13;17.50;;;6.40;58.00;;;;;;4978250;28;20042;-65
2022/03/25 07:52:04;;;;;;;36.70;16.55;;;6.60;58.00;;;;;;4965038;28;20526;-67
2022/03/25 07:54:30;;;;;;;48.72;18.85;;;6.70;57.90;;;;;;4959581;28;20101;-66
2022/03/25 07:56:58;;;;;;;39.58;18.02;;;6.80;57.80;;;;;;4977425;28;20508;-66
2022/03/25 07:59:25;;;;;;;28.98;16.70;;;7.00;57.70;;;;;;4970235;28;20083;-65
2022/03/25 08:01:52;;;;;;;41.15;20.25;;;7.10;57.50;;;;;;4959623;28;20091;-66
2022/03/25 08:04:18;;;;;;;31.08;17.75;;;7.20;57.40;;;;;;4977127;28;20564;-66
2022/03/25 08:06:45;;;;;;;42.45;18.70;;;7.40;57.30;;;;;;4964356;28;20082;-66
2022/03/25 08:09:11;;;;;;;32.55;16.83;;;7.50;57.20;;;;;;4981922;28;20571;-66
2022/03/25 08:11:37;;;;;;;34.47;16.70;;;7.70;57.10;;;;;;4976476;28;20039;-66
2022/03/25 08:14:03;;;;;;;33.75;17.10;;;7.80;57.10;;;;;;4982140;28;20035;-67
2022/03/25 08:16:28;;;;;;;30.10;15.60;;;8.00;57.00;;;;;;4964341;28;20498;-67
2022/03/25 08:18:54;;;;;;;26.50;15.48;;;8.10;56.70;;;;;;4966862;28;20037;-66
2022/03/25 08:21:20;;;;;;;25.50;14.82;;;8.30;56.60;;;;;;4981635;28;20379;-66
2022/03/25 08:29:16;;;;;;;26.88;16.02;;;8.70;55.00;;;;;;4980361;28;20527;-66
2022/03/25 08:31:41;;;;;;;25.55;15.65;;;8.90;54.50;;;;;;4969975;28;20090;-66
2022/03/25 08:34:08;;;;;;;26.13;16.08;;;9.10;54.10;;;;;;4963256;28;20046;-67
2022/03/25 08:36:34;;;;;;;26.40;15.00;;;9.30;54.00;;;;;;4977571;28;20117;-67
2022/03/25 08:39:00;;;;;;;23.70;14.07;;;9.40;53.90;;;;;;4977959;28;20039;-66
2022/03/25 08:41:26;;;;;;;26.95;15.95;;;9.60;53.70;;;;;;4960389;28;20039;-66
2022/03/25 08:43:52;;;;;;;26.35;14.77;;;9.80;53.40;;;;;;4962545;28;20155;-66
2022/03/25 08:46:19;;;;;;;22.90;14.38;;;9.90;53.10;;;;;;4960906;28;20039;-67
2022/03/25 08:48:45;;;;;;;23.85;14.63;;;10.10;52.40;;;;;;4978474;28;20045;-67
2022/03/25 08:51:11;;;;;;;25.92;15.10;;;10.20;51.90;;;;;;4976325;28;20039;-66
2022/03/25 08:53:36;;;;;;;24.73;13.77;;;10.30;51.10;;;;;;4971803;28;20133;-67
2022/03/25 08:56:02;;;;;;;21.92;13.95;;;10.40;51.10;;;;;;4968280;28;20050;-67
2022/03/25 08:58:28;;;;;;;22.83;14.27;;;10.60;50.60;;;;;;4962212;28;20122;-67
2022/03/25 09:00:53;;;;;;;26.08;14.07;;;10.70;50.20;;;;;;4981536;28;20038;-66
2022/03/25 09:03:19;;;;;;;21.88;13.73;;;10.80;49.60;;;;;;4970552;28;20121;-67
2022/03/25 09:05:45;;;;;;;22.80;14.45;;;11.00;49.90;;;;;;4979017;28;20037;-66
2022/03/25 09:08:10;;;;;;;24.48;14.15;;;11.10;49.70;;;;;;4967952;28;20062;-67
2022/03/25 09:10:36;;;;;;;21.30;13.68;;;11.20;49.70;;;;;;4961447;28;20043;-67
2022/03/25 09:13:02;;;;;;;24.70;14.95;;;11.30;49.40;;;;;;4979234;28;20031;-67
2022/03/25 09:15:28;;;;;;;27.33;14.95;;;11.40;49.20;;;;;;4979392;28;20133;-67
2022/03/25 09:17:54;;;;;;;26.13;14.00;;;11.60;48.60;;;;;;4979648;28;20445;-66
2022/03/25 09:20:20;;;;;;;26.75;15.95;;;11.70;48.80;;;;;;4979680;28;20640;-66
2022/03/25 09:22:45;;;;;;;24.85;15.23;;;11.80;47.90;;;;;;4980873;28;20146;-66
2022/03/25 09:25:11;;;;;;;21.80;14.13;;;11.90;48.20;;;;;;4981859;28;20046;-67
2022/03/25 09:27:39;;;;;;;24.92;15.85;;;12.10;48.30;;;;;;4980051;28;20115;-67
2022/03/25 09:30:05;;;;;;;22.02;14.98;;;12.20;47.70;;;;;;4981480;28;20049;-66
2022/03/25 09:32:31;;;;;;;24.27;15.27;;;12.30;47.80;;;;;;4977060;28;20034;-67
2022/03/25 09:35:09;;;;;;;24.95;14.82;;;12.40;47.30;;;;;;4981694;28;20034;-67
2022/03/25 09:37:46;;;;;;;24.13;15.10;;;12.60;47.30;;;;;;4980477;28;20581;-67
2022/03/25 09:40:14;;;;;;;26.50;16.05;;;12.70;46.60;;;;;;4980231;28;20031;-67
2022/03/25 09:42:41;;;;;;;26.80;15.77;;;12.80;45.90;;;;;;4980767;28;20105;-66
2022/03/25 09:45:09;;;;;;;26.13;15.38;;;12.90;46.30;;;;;;4979761;28;20117;-69
2022/03/25 09:47:35;;;;;;;23.90;15.82;;;13.10;46.60;;;;;;4977987;28;20442;-66
2022/03/25 09:50:02;;;;;;;24.55;15.55;;;13.20;46.50;;;;;;4982977;28;20058;-68
2022/03/25 09:52:31;;;;;;;25.65;15.90;;;13.30;46.80;;;;;;4981338;28;20035;-66
2022/03/25 09:54:58;;;;;;;32.60;17.15;;;13.40;46.10;;;;;;4980732;28;20390;-67
2022/03/25 09:57:26;;;;;;;32.50;16.52;;;13.50;45.10;;;;;;4979514;28;20512;-66
2022/03/25 09:59:52;;;;;;;37.05;15.77;;;13.70;44.70;;;;;;4980083;28;20069;-67
2022/03/25 10:02:17;;;;;;;28.27;14.27;;;13.80;44.80;;;;;;4979070;28;20053;-67
2022/03/25 10:04:45;;;;;;;21.75;13.13;;;13.90;45.00;;;;;;4978824;28;20038;-67
2022/03/25 10:07:23;;;;;;;27.83;15.90;;;14.00;44.10;;;;;;4980332;28;20077;-66
2022/03/25 10:10:04;;;;;;;28.15;14.43;;;14.10;43.30;;;;;;4981604;28;20513;-66
2022/03/25 10:12:30;;;;;;;22.75;13.98;;;14.30;43.40;;;;;;4973647;28;20093;-67
2022/03/25 10:15:20;;;;;;;22.77;13.75;;;14.40;43.60;;;;;;4983609;28;20042;-66
2022/03/25 10:18:04;;;;;;;26.77;15.13;;;14.60;42.00;;;;;;4978783;28;20031;-66
2022/03/25 10:20:52;;;;;;;23.60;13.27;;;14.70;42.10;;;;;;4980415;28;20119;-66
2022/03/25 10:23:19;;;;;;;24.45;13.50;;;14.90;40.80;;;;;;4979831;28;20122;-66
2022/03/25 10:25:53;;;;;;;20.63;13.88;;;15.00;41.40;;;;;;4979574;28;20038;-66
2022/03/25 10:28:29;;;;;;;21.65;14.05;;;15.00;41.00;;;;;;4980046;28;20035;-67
2022/03/25 10:30:58;;;;;;;20.25;13.43;;;15.10;41.30;;;;;;4978754;28;20031;-67
2022/03/25 10:33:30;;;;;;;24.13;12.85;;;15.30;41.30;;;;;;4978260;28;20420;-67
2022/03/25 10:35:58;;;;;;;22.25;13.43;;;15.40;40.80;;;;;;4980049;28;20034;-66
2022/03/25 10:38:26;;;;;;;23.40;14.35;;;15.50;40.30;;;;;;4979799;28;20039;-68
2022/03/25 10:40:52;;;;;;;23.27;13.77;;;15.60;40.10;;;;;;4979276;28;20026;-66
2022/03/25 10:43:18;;;;;;;23.77;14.85;;;15.70;39.80;;;;;;4980343;28;20034;-66
2022/03/25 10:45:45;;;;;;;27.85;16.00;;;15.80;40.00;;;;;;4979608;28;20038;-68
2022/03/25 10:48:15;;;;;;;21.13;14.43;;;15.80;39.00;;;;;;4979337;28;20502;-66
2022/03/25 10:51:03;;;;;;;19.30;13.65;;;15.90;38.40;;;;;;4977766;28;20074;-66
2022/03/25 10:53:32;;;;;;;18.17;12.55;;;16.00;37.60;;;;;;4979731;28;20129;-67
2022/03/25 10:56:07;;;;;;;18.70;13.35;;;16.10;38.90;;;;;;4977977;28;20052;-66
2022/03/25 10:58:34;;;;;;;19.52;13.15;;;16.20;38.00;;;;;;4977780;28;20504;-68
2022/03/25 11:01:05;;;;;;;22.77;13.80;;;16.30;38.50;;;;;;4980128;28;20045;-67
2022/03/25 11:03:31;;;;;;;21.10;13.48;;;16.40;39.10;;;;;;4980067;28;20177;-68
2022/03/25 11:05:57;;;;;;;22.95;13.70;;;16.50;38.60;;;;;;4979187;28;20168;-69
2022/03/25 11:08:23;;;;;;;19.27;14.32;;;16.60;38.10;;;;;;4979179;28;20078;-67
2022/03/25 11:10:49;;;;;;;20.50;14.73;;;16.70;36.40;;;;;;4977429;28;20623;-66
2022/03/25 11:13:16;;;;;;;21.75;13.98;;;16.80;35.70;;;;;;4978151;28;20117;-66
2022/03/25 11:15:44;;;;;;;20.23;13.90;;;16.90;36.20;;;;;;4979053;28;20215;-67
2022/03/25 11:18:11;;;;;;;22.52;13.43;;;16.90;36.20;;;;;;4993149;28;20038;-66
2022/03/25 11:20:38;;;;;;;19.70;13.30;;;17.00;36.60;;;;;;4978371;28;20031;-67
2022/03/25 11:23:19;;;;;;;18.55;13.35;;;17.10;36.10;;;;;;4979401;28;20042;-67
2022/03/25 11:25:48;;;;;;;20.33;14.10;;;17.10;34.70;;;;;;4976542;28;20069;-66
2022/03/25 11:28:20;;;;;;;19.15;13.32;;;17.20;35.90;;;;;;4976773;28;20038;-67
2022/03/25 11:31:07;;;;;;;22.73;15.68;;;17.20;35.60;;;;;;4978791;28;20034;-66
2022/03/25 11:34:05;;;;;;;20.42;14.07;;;17.30;31.80;;;;;;4977347;28;20496;-69
2022/03/25 11:36:31;;;;;;;22.02;14.07;;;17.40;33.70;;;;;;4976553;28;20046;-66
2022/03/25 11:39:17;;;;;;;18.73;13.63;;;17.50;35.00;;;;;;4978793;28;20097;-66
2022/03/25 11:41:42;;;;;;;20.88;13.07;;;17.50;33.40;;;;;;4977176;28;20046;-67
2022/03/25 11:44:23;;;;;;;20.23;14.00;;;17.60;34.50;;;;;;4965099;28;20038;-67
2022/03/25 11:47:01;;;;;;;20.40;14.70;;;17.70;34.20;;;;;;4977182;28;20113;-66
2022/03/25 11:49:38;;;;;;;21.27;15.00;;;17.70;34.30;;;;;;4981144;28;20042;-67
2022/03/25 11:52:30;;;;;;;23.45;14.43;;;17.70;34.30;;;;;;4962692;28;20525;-68
2022/03/25 11:54:59;;;;;;;19.35;13.77;;;17.80;33.50;;;;;;4972852;28;20042;-69
2022/03/25 11:57:27;;;;;;;19.33;13.82;;;17.80;35.00;;;;;;4945764;28;20454;-66
2022/03/25 11:59:55;;;;;;;19.30;13.23;;;17.90;34.10;;;;;;4967193;28;20399;-66
2022/03/25 12:02:31;;;;;;;24.17;14.48;;;17.90;33.80;;;;;;4970523;28;20088;-68
2022/03/25 12:04:59;;;;;;;21.67;15.50;;;17.90;33.10;;;;;;4959551;28;20514;-68
2022/03/25 12:07:25;;;;;;;23.63;15.45;;;17.90;33.60;;;;;;4975948;28;20047;-68
2022/03/25 12:09:51;;;;;;;23.55;15.18;;;18.00;34.10;;;;;;4974684;28;20041;-69
2022/03/25 12:12:17;;;;;;;20.83;14.95;;;18.00;34.60;;;;;;4956956;28;20134;-67
2022/03/25 12:15:04;;;;;;;21.70;14.68;;;18.10;34.40;;;;;;4977977;28;20134;-68
2022/03/25 12:17:30;;;;;;;28.77;17.13;;;18.10;33.20;;;;;;4967208;28;20525;-66
2022/03/25 12:19:56;;;;;;;23.95;14.98;;;18.20;33.00;;;;;;4955536;28;20043;-67
2022/03/25 12:22:21;;;;;;;20.00;12.88;;;18.20;33.50;;;;;;4968548;28;20035;-69
2022/03/25 12:24:49;;;;;;;19.42;13.95;;;18.30;33.40;;;;;;4968761;28;20037;-69
2022/03/25 12:27:16;;;;;;;24.02;15.27;;;18.30;33.30;;;;;;4971230;28;20046;-66
2022/03/25 12:29:44;;;;;;;21.38;14.27;;;18.30;33.20;;;;;;4963835;28;20035;-65
2022/03/25 12:32:14;;;;;;;18.40;12.55;;;18.30;32.40;;;;;;4956985;28;20035;-67
2022/03/25 12:35:08;;;;;;;19.63;14.40;;;18.40;31.00;;;;;;4974143;28;20118;-68
2022/03/25 12:37:34;;;;;;;21.83;15.00;;;18.40;29.70;;;;;;4959174;28;20438;-68
2022/03/25 12:40:37;;;;;;;23.17;15.38;;;18.40;32.40;;;;;;4955876;28;20117;-67